NWK1642 YPPH-YPPD
Flight info
| Callsign | NWK1642 |
|---|---|
| Flight time | N/A |
| Altitude | 37000 |
| Route | AVNEX Y15 ESDEG Y44 BUTON DCT PD |
| Aircraft | A319/M-SDE3FGHIRWY/LB1 |
Departure
| Time | 2026-05-01 11:41 |
|---|---|
| Airport | Perth International Airport (YPPH) |
Arrival
| Time | N/A |
|---|---|
| Airport | Port Hedland International Airport (YPPD) |
| Time | Latitude | Longitude | Altitude | Speed | Heading |
|---|---|---|---|---|---|
| 2026-05-01 11:11 | -31.93504 | 115.96117 | 64 ft | 0 kts | 314° |
| 2026-05-01 11:29 | -31.93516 | 115.96132 | 64 ft | 2 kts | 314° |
| 2026-05-01 11:30 | -31.93527 | 115.96144 | 64 ft | 2 kts | 314° |
| 2026-05-01 11:30 | -31.93537 | 115.96157 | 64 ft | 2 kts | 314° |
| 2026-05-01 11:30 | -31.93548 | 115.96169 | 64 ft | 2 kts | 314° |
| 2026-05-01 11:30 | -31.93557 | 115.96181 | 64 ft | 1 kts | 314° |
| 2026-05-01 11:31 | -31.93568 | 115.96191 | 64 ft | 2 kts | 336° |
| 2026-05-01 11:31 | -31.93582 | 115.96197 | 64 ft | 2 kts | 356° |
| 2026-05-01 11:31 | -31.93593 | 115.96196 | 64 ft | 0 kts | 12° |
| 2026-05-01 11:31 | -31.93600 | 115.96194 | 65 ft | 0 kts | 14° |
| 2026-05-01 11:35 | -31.93586 | 115.96198 | 64 ft | 4 kts | 14° |
| 2026-05-01 11:36 | -31.93541 | 115.96215 | 63 ft | 8 kts | 24° |
| 2026-05-01 11:36 | -31.93480 | 115.96256 | 63 ft | 10 kts | 31° |
| 2026-05-01 11:36 | -31.93416 | 115.96291 | 62 ft | 10 kts | 21° |
| 2026-05-01 11:36 | -31.93346 | 115.96316 | 60 ft | 12 kts | 12° |
| 2026-05-01 11:37 | -31.93267 | 115.96330 | 60 ft | 11 kts | 1° |
| 2026-05-01 11:37 | -31.93190 | 115.96338 | 60 ft | 10 kts | 15° |
| 2026-05-01 11:37 | -31.93126 | 115.96365 | 59 ft | 8 kts | 45° |
| 2026-05-01 11:37 | -31.93078 | 115.96429 | 57 ft | 12 kts | 47° |
| 2026-05-01 11:38 | -31.93018 | 115.96503 | 54 ft | 7 kts | 47° |
| 2026-05-01 11:38 | -31.92989 | 115.96542 | 54 ft | 4 kts | 48° |
| 2026-05-01 11:38 | -31.92968 | 115.96569 | 54 ft | 5 kts | 45° |
| 2026-05-01 11:38 | -31.92926 | 115.96593 | 54 ft | 7 kts | 15° |
| 2026-05-01 11:39 | -31.92870 | 115.96607 | 54 ft | 6 kts | 14° |
| 2026-05-01 11:39 | -31.92838 | 115.96640 | 54 ft | 6 kts | 79° |
| 2026-05-01 11:39 | -31.92847 | 115.96694 | 54 ft | 8 kts | 104° |
| 2026-05-01 11:39 | -31.92864 | 115.96771 | 54 ft | 10 kts | 104° |
| 2026-05-01 11:40 | -31.92877 | 115.96826 | 54 ft | 4 kts | 123° |
| 2026-05-01 11:40 | -31.92916 | 115.96830 | 54 ft | 7 kts | 194° |
| 2026-05-01 11:40 | -31.92920 | 115.96829 | 54 ft | 0 kts | 194° |
| 2026-05-01 11:41 | -31.92976 | 115.96812 | 54 ft | 37 kts | 194° |
| 2026-05-01 11:41 | -31.93489 | 115.96664 | 61 ft | 111 kts | 194° |
| 2026-05-01 11:41 | -31.94434 | 115.96385 | 242 ft | 155 kts | 194° |
| 2026-05-01 11:41 | -31.95500 | 115.96063 | 928 ft | 161 kts | 193° |
| 2026-05-01 11:42 | -31.96591 | 115.95729 | 1739 ft | 163 kts | 191° |
| 2026-05-01 11:42 | -31.97635 | 115.95417 | 2400 ft | 165 kts | 190° |
| 2026-05-01 11:42 | -31.98783 | 115.95092 | 2854 ft | 182 kts | 190° |
| 2026-05-01 11:42 | -32.00101 | 115.94717 | 3342 ft | 199 kts | 192° |
| 2026-05-01 11:43 | -32.01375 | 115.93981 | 3731 ft | 227 kts | 217° |
| 2026-05-01 11:43 | -32.02290 | 115.92394 | 4377 ft | 248 kts | 248° |
| 2026-05-01 11:43 | -32.02427 | 115.90383 | 5299 ft | 255 kts | 273° |
| 2026-05-01 11:44 | -32.01814 | 115.86037 | 6651 ft | 283 kts | 276° |
| 2026-05-01 11:44 | -32.01488 | 115.83772 | 7524 ft | 287 kts | 275° |
| 2026-05-01 11:44 | -32.01192 | 115.81631 | 8379 ft | 290 kts | 273° |
| 2026-05-01 11:44 | -32.00873 | 115.79234 | 9279 ft | 293 kts | 272° |
| 2026-05-01 11:45 | -32.00567 | 115.76872 | 10125 ft | 296 kts | 271° |
| 2026-05-01 11:45 | -32.00258 | 115.74441 | 10810 ft | 306 kts | 271° |
| 2026-05-01 11:45 | -31.99938 | 115.71905 | 11369 ft | 319 kts | 271° |
| 2026-05-01 11:45 | -31.99607 | 115.69331 | 12126 ft | 323 kts | 271° |
| 2026-05-01 11:46 | -31.99196 | 115.66702 | 12905 ft | 328 kts | 275° |
| 2026-05-01 11:46 | -31.98721 | 115.64064 | 13677 ft | 330 kts | 275° |
| 2026-05-01 11:46 | -31.98231 | 115.61383 | 14430 ft | 333 kts | 275° |
| 2026-05-01 11:46 | -31.97744 | 115.58707 | 15199 ft | 334 kts | 275° |
| 2026-05-01 11:47 | -31.97252 | 115.56012 | 15959 ft | 335 kts | 275° |
| 2026-05-01 11:47 | -31.96673 | 115.53320 | 16674 ft | 341 kts | 281° |
| 2026-05-01 11:47 | -31.95841 | 115.50717 | 17383 ft | 346 kts | 287° |
| 2026-05-01 11:47 | -31.94762 | 115.48139 | 18109 ft | 350 kts | 290° |
| 2026-05-01 11:48 | -31.93642 | 115.45616 | 18791 ft | 352 kts | 291° |
| 2026-05-01 11:48 | -31.92188 | 115.43232 | 19337 ft | 370 kts | 312° |
| 2026-05-01 11:48 | -31.89901 | 115.41686 | 19903 ft | 389 kts | 339° |
| 2026-05-01 11:48 | -31.87162 | 115.41402 | 20536 ft | 400 kts | 5° |
| 2026-05-01 11:49 | -31.84476 | 115.42326 | 21175 ft | 404 kts | 20° |
| 2026-05-01 11:49 | -31.81846 | 115.43596 | 21728 ft | 408 kts | 21° |
| 2026-05-01 11:49 | -31.79200 | 115.44877 | 22282 ft | 411 kts | 21° |
| 2026-05-01 11:49 | -31.76490 | 115.46136 | 22852 ft | 414 kts | 20° |
| 2026-05-01 11:50 | -31.73762 | 115.47354 | 23418 ft | 416 kts | 19° |
| 2026-05-01 11:50 | -31.71011 | 115.48545 | 23966 ft | 419 kts | 19° |
| 2026-05-01 11:50 | -31.68269 | 115.49714 | 24490 ft | 422 kts | 19° |
| 2026-05-01 11:50 | -31.65440 | 115.50914 | 25011 ft | 426 kts | 19° |
| 2026-05-01 11:51 | -31.62626 | 115.52100 | 25511 ft | 429 kts | 20° |
| 2026-05-01 11:51 | -31.59809 | 115.53288 | 26041 ft | 431 kts | 20° |
| 2026-05-01 11:51 | -31.56920 | 115.54504 | 26541 ft | 434 kts | 20° |
| 2026-05-01 11:51 | -31.54068 | 115.55703 | 27057 ft | 436 kts | 20° |
| 2026-05-01 11:52 | -31.51150 | 115.56928 | 27541 ft | 439 kts | 21° |
| 2026-05-01 11:52 | -31.48242 | 115.58150 | 27984 ft | 442 kts | 21° |
| 2026-05-01 11:52 | -31.45314 | 115.59379 | 28433 ft | 445 kts | 21° |
| 2026-05-01 11:52 | -31.42367 | 115.60614 | 28884 ft | 447 kts | 21° |
| 2026-05-01 11:53 | -31.39387 | 115.61862 | 29350 ft | 449 kts | 21° |
| 2026-05-01 11:53 | -31.36386 | 115.63121 | 29784 ft | 452 kts | 21° |
| 2026-05-01 11:53 | -31.33415 | 115.64365 | 30189 ft | 454 kts | 21° |
| 2026-05-01 11:53 | -31.30373 | 115.65639 | 30562 ft | 457 kts | 21° |
| 2026-05-01 11:54 | -31.27318 | 115.66918 | 30904 ft | 461 kts | 21° |
| 2026-05-01 11:54 | -31.24249 | 115.68200 | 31257 ft | 464 kts | 21° |
| 2026-05-01 11:54 | -31.21183 | 115.69478 | 31686 ft | 464 kts | 21° |
| 2026-05-01 11:54 | -31.18097 | 115.70765 | 32188 ft | 463 kts | 21° |
| 2026-05-01 11:55 | -31.15003 | 115.72053 | 32677 ft | 462 kts | 21° |
| 2026-05-01 11:55 | -31.11964 | 115.73319 | 33137 ft | 461 kts | 20° |
| 2026-05-01 11:55 | -31.08867 | 115.74606 | 33594 ft | 460 kts | 21° |
| 2026-05-01 11:55 | -31.05779 | 115.75888 | 34026 ft | 460 kts | 20° |
| 2026-05-01 11:56 | -31.02754 | 115.77144 | 34461 ft | 459 kts | 20° |
| 2026-05-01 11:56 | -30.99727 | 115.78404 | 34906 ft | 457 kts | 19° |
| 2026-05-01 11:56 | -30.96689 | 115.79665 | 35364 ft | 455 kts | 19° |
| 2026-05-01 11:56 | -30.93667 | 115.80916 | 35824 ft | 453 kts | 18° |
| 2026-05-01 11:57 | -30.90701 | 115.82143 | 36186 ft | 453 kts | 18° |
| 2026-05-01 11:57 | -30.87672 | 115.83392 | 36459 ft | 454 kts | 17° |
| 2026-05-01 11:57 | -30.84635 | 115.84572 | 36700 ft | 455 kts | 14° |
| 2026-05-01 11:57 | -30.81542 | 115.85538 | 36933 ft | 454 kts | 9° |
| 2026-05-01 11:58 | -30.78378 | 115.86264 | 37229 ft | 453 kts | 5° |
| 2026-05-01 11:58 | -30.75221 | 115.86730 | 37282 ft | 453 kts | 1° |
| 2026-05-01 11:59 | -30.65655 | 115.87684 | 37286 ft | 451 kts | 0° |
| 2026-05-01 11:59 | -30.59302 | 115.88321 | 37294 ft | 452 kts | 0° |
| 2026-05-01 12:00 | -30.49789 | 115.89294 | 37286 ft | 451 kts | 0° |
| 2026-05-01 12:01 | -30.40291 | 115.90267 | 37284 ft | 452 kts | 0° |
| 2026-05-01 12:01 | -30.33882 | 115.90924 | 37276 ft | 451 kts | 0° |
| 2026-05-01 12:02 | -30.27549 | 115.91570 | 37280 ft | 451 kts | 0° |
| 2026-05-01 12:02 | -30.21250 | 115.92213 | 37268 ft | 450 kts | 360° |
| 2026-05-01 12:03 | -30.14925 | 115.92860 | 37267 ft | 450 kts | 360° |
| 2026-05-01 12:03 | -30.08640 | 115.93500 | 37278 ft | 450 kts | 359° |
| 2026-05-01 12:04 | -30.02342 | 115.94138 | 37282 ft | 451 kts | 360° |
| 2026-05-01 12:04 | -29.96006 | 115.94784 | 37279 ft | 450 kts | 359° |
| 2026-05-01 12:05 | -29.89705 | 115.95425 | 37275 ft | 449 kts | 359° |
| 2026-05-01 12:05 | -29.80259 | 115.96381 | 37265 ft | 448 kts | 359° |
| 2026-05-01 12:06 | -29.73936 | 115.97018 | 37277 ft | 449 kts | 359° |
| 2026-05-01 12:06 | -29.67694 | 115.97651 | 37275 ft | 448 kts | 359° |
| 2026-05-01 12:07 | -29.61403 | 115.98286 | 37254 ft | 447 kts | 359° |
| 2026-05-01 12:07 | -29.55111 | 115.98916 | 37253 ft | 446 kts | 359° |
| 2026-05-01 12:08 | -29.48863 | 115.99544 | 37244 ft | 446 kts | 359° |
| 2026-05-01 12:08 | -29.42610 | 116.00173 | 37258 ft | 445 kts | 358° |
| 2026-05-01 12:09 | -29.36349 | 116.00796 | 37238 ft | 445 kts | 358° |
| 2026-05-01 12:09 | -29.30107 | 116.01421 | 37247 ft | 445 kts | 358° |
| 2026-05-01 12:10 | -29.20800 | 116.02530 | 37242 ft | 448 kts | 3° |
| 2026-05-01 12:11 | -29.11484 | 116.04993 | 37224 ft | 449 kts | 7° |
| 2026-05-01 12:11 | -29.05402 | 116.06733 | 37234 ft | 449 kts | 7° |
| 2026-05-01 12:12 | -28.99245 | 116.08472 | 37244 ft | 450 kts | 7° |
| 2026-05-01 12:12 | -28.93140 | 116.10202 | 37237 ft | 449 kts | 6° |
| 2026-05-01 12:13 | -28.86976 | 116.11936 | 37242 ft | 448 kts | 6° |
| 2026-05-01 12:13 | -28.80813 | 116.13671 | 37239 ft | 449 kts | 5° |
| 2026-05-01 12:14 | -28.74700 | 116.15383 | 37238 ft | 450 kts | 5° |
| 2026-05-01 12:14 | -28.68552 | 116.17115 | 37232 ft | 448 kts | 5° |
| 2026-05-01 12:15 | -28.62421 | 116.18826 | 37233 ft | 450 kts | 5° |
| 2026-05-01 12:15 | -28.56262 | 116.20551 | 37231 ft | 451 kts | 5° |
| 2026-05-01 12:16 | -28.50140 | 116.22272 | 37223 ft | 447 kts | 4° |
| 2026-05-01 12:16 | -28.44021 | 116.23975 | 37224 ft | 451 kts | 4° |
| 2026-05-01 12:17 | -28.37892 | 116.25687 | 37223 ft | 448 kts | 3° |
| 2026-05-01 12:17 | -28.31762 | 116.27400 | 37218 ft | 447 kts | 2° |
| 2026-05-01 12:18 | -28.25691 | 116.29081 | 37221 ft | 449 kts | 2° |
| 2026-05-01 12:18 | -28.19534 | 116.30795 | 37222 ft | 449 kts | 2° |
| 2026-05-01 12:19 | -28.13442 | 116.32491 | 37210 ft | 447 kts | 1° |
| 2026-05-01 12:19 | -28.07287 | 116.34194 | 37219 ft | 447 kts | 1° |
| 2026-05-01 12:20 | -28.01200 | 116.35879 | 37208 ft | 447 kts | 1° |
| 2026-05-01 12:20 | -27.95070 | 116.37571 | 37212 ft | 447 kts | 1° |
| 2026-05-01 12:21 | -27.88923 | 116.39270 | 37209 ft | 447 kts | 0° |
| 2026-05-01 12:21 | -27.82828 | 116.40951 | 37209 ft | 447 kts | 0° |
| 2026-05-01 12:22 | -27.76721 | 116.42638 | 37208 ft | 444 kts | 0° |
| 2026-05-01 12:22 | -27.70699 | 116.44294 | 37205 ft | 445 kts | 0° |
| 2026-05-01 12:23 | -27.64629 | 116.45963 | 37201 ft | 444 kts | 1° |
| 2026-05-01 12:23 | -27.58561 | 116.47634 | 37200 ft | 442 kts | 0° |
| 2026-05-01 12:24 | -27.52475 | 116.49303 | 37196 ft | 445 kts | 0° |
| 2026-05-01 12:24 | -27.46439 | 116.50964 | 37198 ft | 442 kts | 0° |
| 2026-05-01 12:25 | -27.37361 | 116.53442 | 37201 ft | 446 kts | 0° |
| 2026-05-01 12:26 | -27.31264 | 116.55112 | 37201 ft | 444 kts | 0° |
| 2026-05-01 12:26 | -27.22207 | 116.57584 | 37196 ft | 442 kts | 0° |
| 2026-05-01 12:27 | -27.13137 | 116.60055 | 37196 ft | 443 kts | 0° |
| 2026-05-01 12:28 | -27.04145 | 116.62506 | 37194 ft | 439 kts | 0° |
| 2026-05-01 12:29 | -26.95163 | 116.64945 | 37194 ft | 438 kts | 0° |
| 2026-05-01 12:29 | -26.86161 | 116.67411 | 37186 ft | 442 kts | 360° |
| 2026-05-01 12:30 | -26.77151 | 116.69865 | 37186 ft | 437 kts | 360° |
| 2026-05-01 12:31 | -26.71199 | 116.71468 | 37184 ft | 438 kts | 359° |
| 2026-05-01 12:31 | -26.65210 | 116.73081 | 37186 ft | 439 kts | 360° |
| 2026-05-01 12:32 | -26.59237 | 116.74701 | 37179 ft | 438 kts | 360° |
| 2026-05-01 12:32 | -26.50266 | 116.77125 | 37178 ft | 440 kts | 359° |
| 2026-05-01 12:33 | -26.44272 | 116.78742 | 37176 ft | 438 kts | 360° |
| 2026-05-01 12:33 | -26.38278 | 116.80350 | 37175 ft | 438 kts | 360° |
| 2026-05-01 12:34 | -26.32297 | 116.81957 | 37170 ft | 438 kts | 360° |
| 2026-05-01 12:34 | -26.26351 | 116.83553 | 37165 ft | 435 kts | 360° |
| 2026-05-01 12:35 | -26.20367 | 116.85155 | 37157 ft | 436 kts | 360° |
| 2026-05-01 12:35 | -26.14436 | 116.86743 | 37155 ft | 435 kts | 0° |
| 2026-05-01 12:36 | -26.08505 | 116.88328 | 37156 ft | 434 kts | 0° |
| 2026-05-01 12:36 | -26.02555 | 116.89915 | 37153 ft | 436 kts | 360° |
| 2026-05-01 12:37 | -25.96633 | 116.91499 | 37149 ft | 434 kts | 360° |
| 2026-05-01 12:37 | -25.90672 | 116.93084 | 37146 ft | 436 kts | 0° |
| 2026-05-01 12:38 | -25.84727 | 116.94668 | 37149 ft | 435 kts | 0° |
| 2026-05-01 12:38 | -25.78801 | 116.96242 | 37144 ft | 436 kts | 360° |
| 2026-05-01 12:39 | -25.72808 | 116.97835 | 37143 ft | 436 kts | 360° |
| 2026-05-01 12:39 | -25.66836 | 116.99419 | 37149 ft | 438 kts | 360° |
| 2026-05-01 12:40 | -25.60888 | 117.01000 | 37133 ft | 435 kts | 360° |
| 2026-05-01 12:40 | -25.54974 | 117.02561 | 37140 ft | 438 kts | 0° |
| 2026-05-01 12:41 | -25.48974 | 117.04150 | 37144 ft | 438 kts | 360° |
| 2026-05-01 12:41 | -25.42989 | 117.05733 | 37139 ft | 436 kts | 360° |
| 2026-05-01 12:42 | -25.37025 | 117.07308 | 37141 ft | 437 kts | 360° |
| 2026-05-01 12:42 | -25.31101 | 117.08871 | 37145 ft | 435 kts | 360° |
| 2026-05-01 12:43 | -25.25156 | 117.10436 | 37136 ft | 435 kts | 360° |
| 2026-05-01 12:43 | -25.19215 | 117.12002 | 37136 ft | 436 kts | 360° |
| 2026-05-01 12:44 | -25.13267 | 117.13565 | 37130 ft | 435 kts | 360° |
| 2026-05-01 12:45 | -25.01359 | 117.16730 | 37127 ft | 436 kts | 359° |
| 2026-05-01 12:45 | -24.95409 | 117.18250 | 37123 ft | 435 kts | 359° |
| 2026-05-01 12:46 | -24.89509 | 117.19786 | 37124 ft | 434 kts | 359° |
| 2026-05-01 12:46 | -24.83582 | 117.21333 | 37121 ft | 436 kts | 360° |
| 2026-05-01 12:47 | -24.77668 | 117.22881 | 37125 ft | 435 kts | 360° |
| 2026-05-01 12:47 | -24.71723 | 117.24436 | 37121 ft | 434 kts | 0° |
| 2026-05-01 12:48 | -24.65816 | 117.25977 | 37121 ft | 437 kts | 0° |
| 2026-05-01 12:48 | -24.59816 | 117.27544 | 37121 ft | 435 kts | 0° |
| 2026-05-01 12:49 | -24.53915 | 117.29079 | 37115 ft | 437 kts | 0° |
| 2026-05-01 12:49 | -24.47977 | 117.30626 | 37113 ft | 434 kts | 0° |
| 2026-05-01 12:50 | -24.42064 | 117.32166 | 37112 ft | 433 kts | 0° |
| 2026-05-01 12:50 | -24.36159 | 117.33695 | 37108 ft | 433 kts | 0° |
| 2026-05-01 12:51 | -24.30288 | 117.35214 | 37111 ft | 433 kts | 0° |
| 2026-05-01 12:52 | -24.21455 | 117.37500 | 37108 ft | 434 kts | 0° |
| 2026-05-01 12:52 | -24.12591 | 117.39793 | 37098 ft | 432 kts | 1° |
| 2026-05-01 12:53 | -24.03782 | 117.42066 | 37082 ft | 433 kts | 1° |
| 2026-05-01 12:54 | -23.97911 | 117.43584 | 37077 ft | 432 kts | 0° |
| 2026-05-01 12:54 | -23.89089 | 117.45852 | 37068 ft | 433 kts | 1° |
| 2026-05-01 12:55 | -23.80233 | 117.48130 | 37063 ft | 433 kts | 1° |
| 2026-05-01 12:56 | -23.74340 | 117.49647 | 37059 ft | 432 kts | 1° |
| 2026-05-01 12:56 | -23.68429 | 117.51160 | 37059 ft | 433 kts | 1° |
| 2026-05-01 12:57 | -23.62513 | 117.52683 | 37061 ft | 431 kts | 1° |
| 2026-05-01 12:57 | -23.53649 | 117.54948 | 37063 ft | 433 kts | 1° |
| 2026-05-01 12:58 | -23.47745 | 117.56460 | 37063 ft | 435 kts | 1° |
| 2026-05-01 12:59 | -23.38890 | 117.58727 | 37068 ft | 434 kts | 1° |
| 2026-05-01 12:59 | -23.30033 | 117.60984 | 37072 ft | 432 kts | 1° |
| 2026-05-01 13:00 | -23.22049 | 117.63018 | 37073 ft | 434 kts | 1° |
| 2026-05-01 13:01 | -23.13148 | 117.65285 | 37076 ft | 434 kts | 1° |
| 2026-05-01 13:02 | -23.04730 | 117.67464 | 37091 ft | 434 kts | 1° |
| 2026-05-01 13:07 | -22.43303 | 117.83012 | 35569 ft | 432 kts | 2° |
| 2026-05-01 13:07 | -22.40416 | 117.83739 | 34983 ft | 430 kts | 2° |
| 2026-05-01 13:07 | -22.37498 | 117.84473 | 34331 ft | 429 kts | 2° |
| 2026-05-01 13:08 | -22.34591 | 117.85202 | 33651 ft | 430 kts | 2° |
| 2026-05-01 13:08 | -22.31688 | 117.85929 | 32958 ft | 430 kts | 3° |
| 2026-05-01 13:08 | -22.28730 | 117.86669 | 32358 ft | 431 kts | 3° |
| 2026-05-01 13:08 | -22.25827 | 117.87401 | 31838 ft | 430 kts | 3° |
| 2026-05-01 13:09 | -22.22867 | 117.88145 | 31240 ft | 431 kts | 3° |
| 2026-05-01 13:09 | -22.19969 | 117.88872 | 30765 ft | 428 kts | 3° |
| 2026-05-01 13:09 | -22.17056 | 117.89607 | 30430 ft | 426 kts | 3° |
| 2026-05-01 13:09 | -22.14192 | 117.90327 | 30066 ft | 424 kts | 4° |
| 2026-05-01 13:10 | -22.11311 | 117.91048 | 29664 ft | 421 kts | 4° |
| 2026-05-01 13:10 | -22.08451 | 117.91768 | 29300 ft | 417 kts | 4° |
| 2026-05-01 13:10 | -22.05664 | 117.92470 | 28933 ft | 413 kts | 4° |
| 2026-05-01 13:10 | -22.02873 | 117.93169 | 28556 ft | 410 kts | 4° |
| 2026-05-01 13:11 | -22.00086 | 117.93864 | 28174 ft | 407 kts | 4° |
| 2026-05-01 13:11 | -21.97822 | 117.94429 | 27866 ft | 404 kts | 4° |
| 2026-05-01 13:11 | -21.95095 | 117.95112 | 27502 ft | 400 kts | 4° |
| 2026-05-01 13:11 | -21.92386 | 117.95789 | 27117 ft | 397 kts | 4° |
| 2026-05-01 13:12 | -21.89689 | 117.96460 | 26755 ft | 394 kts | 5° |
| 2026-05-01 13:12 | -21.87018 | 117.97127 | 26322 ft | 391 kts | 5° |
| 2026-05-01 13:12 | -21.84382 | 117.97784 | 25934 ft | 387 kts | 5° |
| 2026-05-01 13:12 | -21.81774 | 117.98435 | 25528 ft | 384 kts | 5° |
| 2026-05-01 13:13 | -21.79199 | 117.99077 | 25131 ft | 380 kts | 5° |
| 2026-05-01 13:13 | -21.76623 | 117.99716 | 24719 ft | 377 kts | 5° |
| 2026-05-01 13:13 | -21.74080 | 118.00351 | 24337 ft | 373 kts | 5° |
| 2026-05-01 13:13 | -21.71549 | 118.00980 | 23939 ft | 370 kts | 5° |
| 2026-05-01 13:14 | -21.69022 | 118.01612 | 23537 ft | 367 kts | 6° |
| 2026-05-01 13:14 | -21.66540 | 118.02228 | 23150 ft | 365 kts | 6° |
| 2026-05-01 13:14 | -21.64077 | 118.02842 | 22785 ft | 362 kts | 6° |
| 2026-05-01 13:14 | -21.61621 | 118.03453 | 22416 ft | 359 kts | 6° |
| 2026-05-01 13:15 | -21.59190 | 118.04058 | 22037 ft | 357 kts | 6° |
| 2026-05-01 13:15 | -21.56753 | 118.04661 | 21660 ft | 355 kts | 6° |
| 2026-05-01 13:15 | -21.54331 | 118.05263 | 21271 ft | 354 kts | 6° |
| 2026-05-01 13:15 | -21.52588 | 118.05694 | 20982 ft | 354 kts | 7° |
| 2026-05-01 13:16 | -21.50203 | 118.06284 | 20598 ft | 353 kts | 7° |
| 2026-05-01 13:16 | -21.47784 | 118.06885 | 20193 ft | 353 kts | 7° |
| 2026-05-01 13:16 | -21.45388 | 118.07478 | 19806 ft | 353 kts | 7° |
| 2026-05-01 13:17 | -21.38514 | 118.10590 | 18543 ft | 367 kts | 31° |
| 2026-05-01 13:17 | -21.36507 | 118.12138 | 18151 ft | 367 kts | 32° |
| 2026-05-01 13:18 | -21.32430 | 118.15364 | 17360 ft | 366 kts | 33° |
| 2026-05-01 13:18 | -21.30504 | 118.16878 | 16999 ft | 365 kts | 33° |
| 2026-05-01 13:18 | -21.28457 | 118.18482 | 16600 ft | 364 kts | 33° |
| 2026-05-01 13:18 | -21.26392 | 118.20092 | 16180 ft | 363 kts | 33° |
| 2026-05-01 13:19 | -21.24325 | 118.21699 | 15768 ft | 362 kts | 33° |